createdAt,value
2023-03-02T00:02:09.296Z,109.97
2023-03-02T00:04:41.105Z,125.75
2023-03-02T00:07:12.326Z,119.40
2023-03-02T00:09:43.240Z,119.15
2023-03-02T00:12:12.717Z,117.00
2023-03-02T00:14:43.582Z,129.85
2023-03-02T00:17:15.420Z,125.55
2023-03-02T00:19:45.086Z,126.57
2023-03-02T00:22:14.279Z,118.43
2023-03-02T00:24:43.457Z,118.53
2023-03-02T00:27:12.648Z,119.57
2023-03-02T00:29:44.010Z,123.25
2023-03-02T00:32:18.216Z,125.22
2023-03-02T00:34:47.137Z,134.02
2023-03-02T00:37:16.455Z,123.53
2023-03-02T00:39:46.100Z,92.38
2023-03-02T00:42:15.319Z,129.07
2023-03-02T00:44:45.882Z,120.70
2023-03-02T00:47:15.962Z,121.53
2023-03-02T00:49:48.973Z,126.25
2023-03-02T00:52:18.283Z,130.38
2023-03-02T00:54:50.157Z,92.47
2023-03-02T00:57:19.533Z,134.85
2023-03-02T00:59:50.368Z,119.10
2023-03-02T01:02:44.209Z,122.95
2023-03-02T01:05:17.486Z,131.88
2023-03-02T01:07:46.568Z,129.13
2023-03-02T01:10:16.427Z,124.90
2023-03-02T01:12:45.712Z,117.72
2023-03-02T01:15:16.542Z,132.88
2023-03-02T01:17:46.879Z,139.27
2023-03-02T01:20:16.416Z,126.10
2023-03-02T01:22:45.607Z,137.10
2023-03-02T01:25:15.132Z,132.00
2023-03-02T01:27:44.436Z,121.60
2023-03-02T01:30:15.932Z,88.10
2023-03-02T01:32:46.030Z,127.68
2023-03-02T01:35:15.657Z,136.68
2023-03-02T01:37:44.476Z,131.32
2023-03-02T01:40:16.061Z,128.73
2023-03-02T01:42:51.965Z,138.00
2023-03-02T01:45:53.544Z,132.13
2023-03-02T01:51:14.996Z,118.95
2023-03-02T01:53:47.990Z,123.05
2023-03-02T01:56:19.130Z,122.80
2023-03-02T01:58:51.300Z,120.05
2023-03-02T02:01:22.419Z,124.35
2023-03-02T02:03:52.449Z,128.27
2023-03-02T02:06:25.641Z,127.38
2023-03-02T02:08:56.418Z,133.05
2023-03-02T02:11:25.732Z,140.15
2023-03-02T02:13:57.268Z,134.50
2023-03-02T02:16:28.409Z,129.68
2023-03-02T02:18:57.569Z,119.03
2023-03-02T02:21:27.524Z,118.38
2023-03-02T02:24:04.590Z,105.68
2023-03-02T02:26:38.938Z,98.40
2023-03-02T02:29:12.518Z,89.60
2023-03-02T02:31:46.163Z,97.43
2023-03-02T02:34:23.046Z,94.32
2023-03-02T02:36:56.440Z,96.25
2023-03-02T02:39:30.340Z,100.32
2023-03-02T02:42:03.426Z,83.45
2023-03-02T02:44:32.967Z,91.22
2023-03-02T02:47:02.486Z,109.95
2023-03-02T02:49:34.420Z,104.25
2023-03-02T02:52:04.962Z,106.82
2023-03-02T02:54:35.441Z,83.72
2023-03-02T02:57:06.684Z,81.35
2023-03-02T02:59:40.002Z,101.82
2023-03-02T03:02:13.136Z,88.03
2023-03-02T03:04:42.090Z,78.93
2023-03-02T03:07:12.531Z,79.53
2023-03-02T03:09:41.964Z,73.78
2023-03-02T03:12:17.110Z,71.03
2023-03-02T03:14:46.418Z,66.30
2023-03-02T03:17:15.684Z,52.58
2023-03-02T03:19:51.675Z,71.10
2023-03-02T03:22:21.264Z,67.85
2023-03-02T03:24:52.229Z,78.15
2023-03-02T03:27:23.223Z,71.22
2023-03-02T03:29:52.889Z,68.75
2023-03-02T03:32:23.154Z,65.72
2023-03-02T03:34:55.593Z,59.83
2023-03-02T03:37:34.764Z,61.38
2023-03-02T03:40:05.879Z,62.17
2023-03-02T03:42:37.876Z,64.57
2023-03-02T03:45:08.693Z,61.90
2023-03-02T03:47:38.981Z,60.88
2023-03-02T03:50:11.281Z,64.75
2023-03-02T03:52:41.151Z,56.53
2023-03-02T03:55:19.401Z,59.65
2023-03-02T03:57:52.020Z,62.25
2023-03-02T04:00:22.085Z,55.03
2023-03-02T04:02:57.612Z,64.95
2023-03-02T04:05:30.694Z,55.53
2023-03-02T04:08:02.602Z,57.25
2023-03-02T04:10:32.849Z,60.53
2023-03-02T04:13:04.657Z,50.15
2023-03-02T04:15:34.104Z,53.75
2023-03-02T04:18:06.434Z,65.68
2023-03-02T04:20:37.267Z,54.80
2023-03-02T04:25:36.323Z,60.67
2023-03-02T04:28:12.226Z,58.22
2023-03-02T04:30:42.972Z,55.58
2023-03-02T04:33:12.318Z,58.40
2023-03-02T04:35:41.902Z,56.83
2023-03-02T04:38:11.082Z,61.17
2023-03-02T04:40:39.831Z,52.83
2023-03-02T04:43:09.020Z,47.80
2023-03-02T04:45:39.989Z,53.17
2023-03-02T04:48:09.165Z,54.47
2023-03-02T04:50:38.579Z,55.65
2023-03-02T04:53:07.651Z,49.07
2023-03-02T04:55:36.432Z,53.95
2023-03-02T04:58:05.551Z,51.60
2023-03-02T05:00:35.424Z,44.50
2023-03-02T05:03:06.709Z,44.45
2023-03-02T05:05:35.926Z,47.33
2023-03-02T05:08:05.357Z,46.20
2023-03-02T05:10:34.085Z,47.70
2023-03-02T05:13:05.283Z,46.08
2023-03-02T05:15:36.428Z,56.25
2023-03-02T05:18:09.266Z,45.35
2023-03-02T05:20:38.846Z,52.63
2023-03-02T05:23:10.395Z,37.22
2023-03-02T05:25:40.019Z,53.42
2023-03-02T05:28:10.211Z,47.30
2023-03-02T05:30:39.437Z,49.03
2023-03-02T05:33:10.098Z,42.08
2023-03-02T05:35:39.646Z,62.58
2023-03-02T05:38:08.735Z,62.90
2023-03-02T05:40:37.788Z,68.85
2023-03-02T05:43:07.449Z,76.72
2023-03-02T05:45:39.203Z,77.95
2023-03-02T05:48:11.732Z,78.22
2023-03-02T05:50:40.894Z,74.72
2023-03-02T05:53:10.108Z,76.55
2023-03-02T05:55:38.892Z,77.20
2023-03-02T05:58:09.248Z,83.60
2023-03-02T06:00:38.498Z,81.13
2023-03-02T06:03:08.076Z,81.03
2023-03-02T06:05:38.925Z,87.95
2023-03-02T06:08:08.379Z,96.75
2023-03-02T06:10:37.030Z,102.55
2023-03-02T06:13:06.250Z,86.70
2023-03-02T06:15:35.673Z,88.07
2023-03-02T06:18:04.959Z,59.28
2023-03-02T06:20:34.091Z,91.60
2023-03-02T06:23:04.893Z,104.57
2023-03-02T06:25:33.742Z,94.05
2023-03-02T06:28:02.836Z,84.10
2023-03-02T06:30:32.309Z,79.03
2023-03-02T06:33:01.859Z,89.95
2023-03-02T06:35:31.159Z,86.00
2023-03-02T06:38:00.429Z,81.50
2023-03-02T06:40:31.555Z,91.38
2023-03-02T06:43:03.860Z,94.72
2023-03-02T06:45:34.997Z,110.10
2023-03-02T06:48:07.214Z,108.50
2023-03-02T06:50:36.900Z,116.22
2023-03-02T06:53:06.421Z,105.22
2023-03-02T06:55:37.079Z,108.35
2023-03-02T06:58:06.348Z,106.32
2023-03-02T07:00:35.687Z,113.35
2023-03-02T07:03:04.923Z,77.13
2023-03-02T07:05:34.283Z,94.55
2023-03-02T07:08:03.817Z,97.15
2023-03-02T07:10:33.398Z,100.47
2023-03-02T07:13:04.348Z,101.35
2023-03-02T07:15:33.638Z,98.70
2023-03-02T07:18:02.754Z,89.32
2023-03-02T07:20:32.194Z,100.72
2023-03-02T07:23:01.690Z,93.47
2023-03-02T07:25:30.794Z,92.07
2023-03-02T07:28:00.701Z,89.17
2023-03-02T07:30:31.530Z,81.30
2023-03-02T07:33:00.925Z,82.93
2023-03-02T07:35:30.254Z,84.00
2023-03-02T07:37:59.532Z,83.35
2023-03-02T07:40:28.887Z,78.03
2023-03-02T07:42:58.354Z,85.00
2023-03-02T07:45:27.776Z,71.70
2023-03-02T07:47:58.556Z,65.93
2023-03-02T07:50:27.797Z,77.15
2023-03-02T07:52:58.548Z,66.15
2023-03-02T07:55:29.009Z,68.30
2023-03-02T07:57:58.469Z,71.72
2023-03-02T08:00:28.222Z,50.87
2023-03-02T08:02:58.851Z,63.13
2023-03-02T08:05:28.141Z,64.93
2023-03-02T08:07:57.894Z,64.80
2023-03-02T08:10:27.142Z,59.85
2023-03-02T08:12:57.646Z,64.85
2023-03-02T08:15:26.791Z,59.00
2023-03-02T08:17:56.058Z,56.42
2023-03-02T08:20:26.851Z,57.97
2023-03-02T08:22:55.631Z,55.72
2023-03-02T08:25:24.765Z,54.75
2023-03-02T08:27:53.921Z,48.60
2023-03-02T08:30:23.111Z,42.60
2023-03-02T08:32:52.277Z,35.40
2023-03-02T08:35:22.332Z,58.53
2023-03-02T08:37:52.591Z,57.17
2023-03-02T08:40:21.796Z,51.28
2023-03-02T08:42:57.031Z,53.88
2023-03-02T08:45:26.327Z,42.50
2023-03-02T08:47:55.806Z,39.00
2023-03-02T08:50:24.989Z,40.53
2023-03-02T08:52:55.205Z,42.33
2023-03-02T08:55:24.485Z,31.55
2023-03-02T08:57:56.893Z,30.55
2023-03-02T09:00:26.223Z,29.40
2023-03-02T09:02:55.355Z,29.55
2023-03-02T09:05:24.782Z,45.92
2023-03-02T09:07:55.224Z,69.57
2023-03-02T09:10:24.349Z,62.45
2023-03-02T09:12:53.396Z,49.97
2023-03-02T09:15:22.900Z,49.40
2023-03-02T09:17:52.086Z,46.35
2023-03-02T09:20:21.700Z,44.03
2023-03-02T09:22:51.002Z,35.63
2023-03-02T09:25:21.991Z,28.48
2023-03-02T09:27:51.281Z,23.05
2023-03-02T09:30:20.459Z,18.33
2023-03-02T09:32:50.349Z,14.27
2023-03-02T09:35:19.724Z,18.92
2023-03-02T09:37:48.554Z,18.80
2023-03-02T09:40:22.181Z,16.75
2023-03-02T09:43:08.133Z,16.08
2023-03-02T09:46:00.364Z,13.35
2023-03-02T09:48:38.912Z,17.58
2023-03-02T09:51:22.242Z,15.45
2023-03-02T09:53:55.128Z,23.63
2023-03-02T09:56:26.071Z,29.48
2023-03-02T09:59:00.417Z,18.00
2023-03-02T10:01:35.937Z,27.42
2023-03-02T10:04:12.939Z,19.40
2023-03-02T10:06:42.217Z,22.15
2023-03-02T10:09:12.201Z,17.95
2023-03-02T10:11:51.893Z,13.50
2023-03-02T10:14:26.083Z,14.57
2023-03-02T10:17:04.368Z,13.30
2023-03-02T10:19:41.817Z,14.48
2023-03-02T10:22:18.294Z,13.10
2023-03-02T10:24:52.809Z,16.95
2023-03-02T10:27:26.911Z,14.82
2023-03-02T10:30:00.781Z,13.07
2023-03-02T10:32:33.870Z,13.23
2023-03-02T10:35:07.569Z,13.18
2023-03-02T10:37:36.472Z,14.57
2023-03-02T10:40:06.038Z,11.65
2023-03-02T10:42:40.463Z,19.33
2023-03-02T10:45:22.779Z,13.95
2023-03-02T10:48:01.586Z,18.35
2023-03-02T10:50:31.905Z,12.82
2023-03-02T10:53:04.117Z,11.85
2023-03-02T10:55:34.974Z,12.52
2023-03-02T10:58:07.901Z,10.60
2023-03-02T11:00:37.432Z,13.48
2023-03-02T11:03:19.453Z,10.63
2023-03-02T11:05:48.619Z,11.75
2023-03-02T11:08:19.737Z,11.30
2023-03-02T11:10:57.054Z,8.63
2023-03-02T11:13:33.572Z,11.55
2023-03-02T11:16:03.917Z,12.50
2023-03-02T11:18:36.569Z,16.02
2023-03-02T11:21:09.964Z,13.57
2023-03-02T11:23:54.024Z,12.00
2023-03-02T11:26:25.544Z,14.18
2023-03-02T11:29:00.964Z,13.10
2023-03-02T11:31:35.567Z,10.48
2023-03-02T11:34:22.610Z,14.05
2023-03-02T11:37:03.758Z,11.70
2023-03-02T11:39:46.396Z,13.60
2023-03-02T11:42:22.320Z,14.52
2023-03-02T11:44:53.058Z,15.02
2023-03-02T11:47:22.795Z,20.63
2023-03-02T11:49:55.944Z,14.88
2023-03-02T11:52:27.883Z,16.25
2023-03-02T11:55:01.091Z,16.15
2023-03-02T11:57:32.825Z,19.77
2023-03-02T12:00:05.326Z,15.15
2023-03-02T12:02:41.591Z,18.10
2023-03-02T12:05:25.534Z,13.13
2023-03-02T12:08:01.738Z,15.98
2023-03-02T12:10:36.530Z,15.60
2023-03-02T12:13:16.180Z,19.75
2023-03-02T12:15:47.685Z,19.58
2023-03-02T12:18:46.320Z,13.65
2023-03-02T12:21:19.547Z,11.07
2023-03-02T12:24:04.990Z,18.38
2023-03-02T12:26:38.408Z,14.15
2023-03-02T12:29:24.101Z,17.27
2023-03-02T12:31:56.496Z,20.27
2023-03-02T12:34:37.174Z,16.70
2023-03-02T12:37:13.579Z,23.55
2023-03-02T12:40:02.966Z,22.75
2023-03-02T12:43:01.247Z,25.52
2023-03-02T12:45:39.779Z,22.02
2023-03-02T12:48:25.025Z,24.27
2023-03-02T12:50:57.602Z,17.80
2023-03-02T12:53:26.858Z,21.17
2023-03-02T12:55:56.708Z,23.83
2023-03-02T12:58:28.111Z,19.63
2023-03-02T13:00:59.563Z,24.45
2023-03-02T13:03:31.943Z,19.42
2023-03-02T13:06:05.225Z,19.25
2023-03-02T13:08:34.766Z,16.88
2023-03-02T13:11:04.386Z,25.95
2023-03-02T13:13:37.936Z,27.98
2023-03-02T13:16:08.658Z,23.05
2023-03-02T13:18:40.695Z,24.73
2023-03-02T13:21:12.823Z,18.40
2023-03-02T13:23:47.516Z,26.00
2023-03-02T13:26:26.968Z,21.73
2023-03-02T13:29:07.279Z,24.10
2023-03-02T13:31:36.859Z,23.95
2023-03-02T13:34:07.614Z,25.03
2023-03-02T13:36:39.329Z,21.85
2023-03-02T13:39:16.774Z,21.70
2023-03-02T13:41:54.395Z,20.20
2023-03-02T13:44:28.205Z,21.95
2023-03-02T13:46:57.293Z,21.63
2023-03-02T13:49:32.857Z,21.40
2023-03-02T13:52:07.750Z,23.13
2023-03-02T13:54:38.599Z,24.92
2023-03-02T13:57:08.117Z,24.02
2023-03-02T13:59:37.723Z,22.50
2023-03-02T14:02:20.867Z,20.73
2023-03-02T14:04:51.335Z,26.33
2023-03-02T14:07:20.941Z,22.63
2023-03-02T14:09:50.369Z,25.58
2023-03-02T14:12:24.741Z,25.02
2023-03-02T14:14:55.011Z,30.40
2023-03-02T14:17:25.866Z,24.45
2023-03-02T14:22:27.397Z,27.77
2023-03-02T14:24:56.658Z,29.83
2023-03-02T14:27:28.719Z,33.33
2023-03-02T14:29:57.840Z,31.60
2023-03-02T14:32:27.002Z,29.85
2023-03-02T14:34:57.207Z,31.52
2023-03-02T14:37:28.778Z,33.47
2023-03-02T14:39:58.354Z,34.85
2023-03-02T14:42:27.406Z,27.17
2023-03-02T14:44:56.610Z,36.13
2023-03-02T14:47:25.678Z,37.00
2023-03-02T14:49:54.760Z,35.50
2023-03-02T14:52:29.471Z,37.50
2023-03-02T14:55:00.832Z,48.53
2023-03-02T14:57:31.246Z,38.20
2023-03-02T15:02:30.021Z,31.58
2023-03-02T15:04:59.280Z,34.63
2023-03-02T15:07:30.373Z,31.60
2023-03-02T15:09:59.670Z,31.67
2023-03-02T15:12:28.945Z,32.33
2023-03-02T15:14:58.230Z,26.27
2023-03-02T15:17:27.364Z,28.48
2023-03-02T15:19:56.191Z,27.92
2023-03-02T15:22:25.390Z,26.20
2023-03-02T15:24:56.123Z,33.72
2023-03-02T15:27:25.361Z,33.92
2023-03-02T15:29:56.673Z,25.70
2023-03-02T15:32:26.746Z,27.83
2023-03-02T15:34:55.576Z,28.60
2023-03-02T15:37:24.849Z,33.22
2023-03-02T15:39:58.544Z,30.48
2023-03-02T15:42:27.728Z,27.38
2023-03-02T15:44:56.861Z,31.05
2023-03-02T15:47:26.141Z,31.25
2023-03-02T15:49:55.562Z,35.90
2023-03-02T15:52:24.692Z,34.35
2023-03-02T15:54:53.802Z,35.45
2023-03-02T15:57:24.445Z,33.50
2023-03-02T15:59:53.626Z,31.10
2023-03-02T16:02:22.865Z,29.20
2023-03-02T16:04:51.584Z,34.33
2023-03-02T16:07:20.559Z,31.52
2023-03-02T16:09:49.752Z,29.83
2023-03-02T16:12:20.543Z,30.45
2023-03-02T16:14:51.182Z,30.83
2023-03-02T16:17:20.636Z,33.80
2023-03-02T16:19:49.309Z,35.08
2023-03-02T16:22:18.409Z,30.95
2023-03-02T16:24:50.001Z,32.53
2023-03-02T16:27:19.165Z,28.77
2023-03-02T16:29:48.378Z,39.58
2023-03-02T16:32:18.960Z,35.90
2023-03-02T16:37:16.494Z,38.63
2023-03-02T16:39:45.580Z,32.47
2023-03-02T16:42:14.803Z,40.83
2023-03-02T16:44:46.025Z,36.08
2023-03-02T16:47:15.143Z,31.55
2023-03-02T16:49:45.289Z,33.25
2023-03-02T16:52:14.500Z,41.70
2023-03-02T16:54:43.731Z,42.38
2023-03-02T16:57:12.916Z,37.33
2023-03-02T16:59:43.072Z,45.90
2023-03-02T17:02:13.341Z,38.78
2023-03-02T17:04:44.813Z,44.70
2023-03-02T17:07:14.009Z,42.25
2023-03-02T17:09:43.204Z,43.15
2023-03-02T17:12:12.504Z,44.95
2023-03-02T17:14:41.640Z,41.35
2023-03-02T17:17:10.805Z,46.25
2023-03-02T17:19:39.553Z,41.33
2023-03-02T17:22:10.167Z,38.70
2023-03-02T17:24:39.323Z,56.20
2023-03-02T17:27:19.178Z,51.33
2023-03-02T17:29:53.365Z,55.63
2023-03-02T17:32:23.000Z,62.97
2023-03-02T17:34:51.816Z,61.53
2023-03-02T17:37:22.608Z,65.70
2023-03-02T17:39:51.907Z,71.28
2023-03-02T17:42:21.112Z,76.47
2023-03-02T17:44:50.199Z,76.43
2023-03-02T17:47:19.410Z,72.65
2023-03-02T17:52:19.329Z,79.75
2023-03-02T17:54:50.304Z,87.72
2023-03-02T17:57:22.766Z,84.35
2023-03-02T17:59:52.116Z,95.85
2023-03-02T18:02:21.230Z,98.35
2023-03-02T18:04:50.021Z,91.93
2023-03-02T18:07:19.226Z,90.30
2023-03-02T18:09:49.925Z,90.95
2023-03-02T18:12:19.191Z,97.68
2023-03-02T18:14:48.319Z,99.72
2023-03-02T18:17:20.112Z,109.10
2023-03-02T18:19:49.208Z,108.25
2023-03-02T18:22:18.251Z,113.67
2023-03-02T18:24:47.668Z,121.18
2023-03-02T18:27:19.480Z,114.30
2023-03-02T18:29:48.652Z,126.03
2023-03-02T18:32:17.741Z,112.43
2023-03-02T18:34:46.741Z,129.55
2023-03-02T18:37:15.950Z,136.07
2023-03-02T18:39:45.342Z,99.38
2023-03-02T18:42:14.523Z,121.07
2023-03-02T18:44:45.152Z,111.15
2023-03-02T18:47:18.018Z,123.35
2023-03-02T18:49:47.242Z,118.13
2023-03-02T18:52:16.728Z,122.07
2023-03-02T18:54:46.424Z,83.37
2023-03-02T18:57:15.815Z,133.38
2023-03-02T18:59:46.423Z,133.95
2023-03-02T19:02:15.869Z,133.25
2023-03-02T19:04:44.693Z,128.32
2023-03-02T19:07:13.827Z,137.32
2023-03-02T19:09:42.963Z,140.48
2023-03-02T19:12:12.286Z,137.50
2023-03-02T19:14:42.863Z,135.47
2023-03-02T19:17:13.858Z,133.63
2023-03-02T19:19:43.753Z,134.70
2023-03-02T19:22:13.348Z,118.00
2023-03-02T19:24:44.330Z,121.97
2023-03-02T19:27:13.673Z,106.32
2023-03-02T19:29:42.911Z,112.40
2023-03-02T19:32:15.110Z,112.18
2023-03-02T19:34:44.547Z,114.97
2023-03-02T19:37:13.647Z,115.72
2023-03-02T19:39:42.917Z,106.40
2023-03-02T19:42:12.203Z,108.25
2023-03-02T19:44:41.245Z,113.30
2023-03-02T19:47:10.291Z,111.75
2023-03-02T19:49:40.422Z,115.05
2023-03-02T19:52:09.620Z,129.80
2023-03-02T19:54:41.172Z,139.57
2023-03-02T19:57:13.012Z,146.77
2023-03-02T19:59:44.956Z,152.20
2023-03-02T20:02:17.265Z,139.65
2023-03-02T20:04:51.053Z,148.23
2023-03-02T20:07:20.517Z,154.57
2023-03-02T20:09:49.568Z,154.73
2023-03-02T20:12:19.932Z,154.70
2023-03-02T20:14:51.774Z,152.02
2023-03-02T20:17:21.194Z,162.40
2023-03-02T20:19:52.685Z,159.80
2023-03-02T20:22:21.911Z,154.77
2023-03-02T20:24:51.044Z,150.77
2023-03-02T20:27:21.298Z,154.73
2023-03-02T20:29:50.374Z,156.07
2023-03-02T20:32:19.601Z,163.15
2023-03-02T20:34:48.406Z,168.63
2023-03-02T20:37:19.783Z,166.23
2023-03-02T20:39:49.715Z,166.80
2023-03-02T20:42:18.828Z,169.13
2023-03-02T20:44:48.173Z,179.38
2023-03-02T20:47:18.112Z,173.32
2023-03-02T20:49:46.937Z,141.50
2023-03-02T20:52:16.295Z,182.25
2023-03-02T20:54:46.831Z,183.07
2023-03-02T20:57:17.833Z,188.50
2023-03-02T20:59:48.194Z,200.15
2023-03-02T21:02:19.582Z,178.15
2023-03-02T21:04:48.879Z,194.88
2023-03-02T21:07:18.091Z,207.48
2023-03-02T21:09:48.743Z,215.30
2023-03-02T21:12:17.922Z,207.10
2023-03-02T21:14:47.112Z,153.02
2023-03-02T21:17:16.633Z,193.88
2023-03-02T21:19:45.364Z,201.90
2023-03-02T21:22:14.503Z,207.35
2023-03-02T21:24:43.622Z,203.27
2023-03-02T21:27:14.283Z,154.98
2023-03-02T21:29:43.357Z,212.05
2023-03-02T21:32:12.604Z,194.93
2023-03-02T21:34:41.363Z,211.55
2023-03-02T21:37:10.444Z,224.40
2023-03-02T21:39:39.519Z,223.73
2023-03-02T21:42:08.699Z,212.50
2023-03-02T21:44:39.228Z,220.63
2023-03-02T21:47:08.307Z,204.82
2023-03-02T21:49:37.126Z,203.88
2023-03-02T21:52:07.915Z,207.13
2023-03-02T21:54:37.073Z,204.10
2023-03-02T21:57:08.368Z,203.80
2023-03-02T21:59:38.860Z,209.23
2023-03-02T22:02:08.088Z,203.50
2023-03-02T22:04:36.818Z,203.60
2023-03-02T22:07:05.957Z,215.02
2023-03-02T22:09:35.069Z,214.77
2023-03-02T22:12:09.060Z,176.88
2023-03-02T22:14:39.716Z,216.75
2023-03-02T22:17:16.608Z,215.30
2023-03-02T22:19:46.083Z,204.70
2023-03-02T22:22:19.005Z,203.27
2023-03-02T22:24:50.258Z,201.77
2023-03-02T22:27:24.331Z,213.52
2023-03-02T22:29:57.811Z,200.25
2023-03-02T22:32:28.965Z,205.27
2023-03-02T22:34:59.651Z,208.50
2023-03-02T22:37:30.320Z,204.27
2023-03-02T22:40:03.202Z,206.93
2023-03-02T22:42:34.749Z,194.27
2023-03-02T22:45:14.892Z,204.48
2023-03-02T22:47:44.501Z,216.80
2023-03-02T22:50:22.374Z,203.15
2023-03-02T22:52:51.144Z,196.68
2023-03-02T22:55:39.981Z,200.65
2023-03-02T22:58:42.705Z,207.15
2023-03-02T23:01:21.659Z,193.10
2023-03-02T23:03:52.721Z,191.88
2023-03-02T23:06:29.955Z,178.23
2023-03-02T23:09:01.261Z,168.68
2023-03-02T23:11:31.328Z,180.15
2023-03-02T23:16:35.782Z,157.23
2023-03-02T23:19:05.850Z,159.63
2023-03-02T23:21:39.178Z,157.23
2023-03-02T23:24:09.355Z,152.05
2023-03-02T23:29:07.600Z,144.57
2023-03-02T23:31:38.309Z,145.37
2023-03-02T23:34:07.518Z,146.18
2023-03-02T23:36:37.696Z,139.88
2023-03-02T23:41:36.649Z,147.35
2023-03-02T23:44:06.210Z,146.40
2023-03-02T23:46:35.352Z,147.70
2023-03-02T23:49:05.862Z,150.75
2023-03-02T23:51:35.245Z,146.07
2023-03-02T23:54:04.909Z,168.53
2023-03-02T23:56:34.137Z,153.00
2023-03-02T23:59:03.473Z,158.23
